createdAt,value
2023-01-09T00:00:52.580Z,2.30
2023-01-09T00:03:19.293Z,2.60
2023-01-09T00:05:45.994Z,2.33
2023-01-09T00:08:12.595Z,2.30
2023-01-09T00:10:39.241Z,2.28
2023-01-09T00:13:05.907Z,2.90
2023-01-09T00:15:32.552Z,2.20
2023-01-09T00:17:59.203Z,3.15
2023-01-09T00:20:25.915Z,2.35
2023-01-09T00:22:52.513Z,1.83
2023-01-09T00:25:19.161Z,2.00
2023-01-09T00:27:45.792Z,1.83
2023-01-09T00:30:12.782Z,1.85
2023-01-09T00:32:40.233Z,1.88
2023-01-09T00:35:10.089Z,2.00
2023-01-09T00:37:36.698Z,1.95
2023-01-09T00:40:05.973Z,1.83
2023-01-09T00:42:36.463Z,1.40
2023-01-09T00:45:09.976Z,1.75
2023-01-09T00:47:42.701Z,1.70
2023-01-09T00:50:17.268Z,1.50
2023-01-09T00:52:45.295Z,1.55
2023-01-09T00:55:13.918Z,1.25
2023-01-09T00:57:40.776Z,1.60
2023-01-09T01:00:09.090Z,1.10
2023-01-09T01:02:35.743Z,1.10
2023-01-09T01:05:21.337Z,1.17
2023-01-09T01:07:47.978Z,0.98
2023-01-09T01:10:25.350Z,1.13
2023-01-09T01:12:52.949Z,1.27
2023-01-09T01:15:19.996Z,1.00
2023-01-09T01:17:47.275Z,0.70
2023-01-09T01:20:18.652Z,0.80
2023-01-09T01:22:45.661Z,0.85
2023-01-09T01:25:14.944Z,0.70
2023-01-09T01:27:41.769Z,0.70
2023-01-09T01:30:12.017Z,0.80
2023-01-09T01:32:39.550Z,0.68
2023-01-09T01:35:07.695Z,0.70
2023-01-09T01:37:36.773Z,0.60
2023-01-09T01:40:06.012Z,0.60
2023-01-09T01:42:32.799Z,0.57
2023-01-09T01:45:10.360Z,0.55
2023-01-09T01:48:07.302Z,0.60
2023-01-09T01:50:59.450Z,0.50
2023-01-09T01:53:34.376Z,0.73
2023-01-09T01:56:18.040Z,0.50
2023-01-09T01:59:09.022Z,0.60
2023-01-09T02:01:41.142Z,0.50
2023-01-09T02:04:08.539Z,0.50
2023-01-09T02:06:36.533Z,0.55
2023-01-09T02:09:05.341Z,0.50
2023-01-09T02:11:32.386Z,0.55
2023-01-09T02:14:00.491Z,0.43
2023-01-09T02:16:54.502Z,0.52
2023-01-09T02:20:16.801Z,0.45
2023-01-09T02:22:59.897Z,0.55
2023-01-09T02:26:08.155Z,0.50
2023-01-09T02:29:16.029Z,0.30
2023-01-09T02:31:54.957Z,0.43
2023-01-09T02:34:39.071Z,0.32
2023-01-09T02:37:41.128Z,0.50
2023-01-09T02:40:27.992Z,0.30
2023-01-09T02:42:57.474Z,0.30
2023-01-09T02:45:24.096Z,0.30
2023-01-09T02:47:50.686Z,0.20
2023-01-09T02:50:23.308Z,0.20
2023-01-09T02:53:28.031Z,0.22
2023-01-09T02:56:13.524Z,0.32
2023-01-09T02:58:56.597Z,0.20
2023-01-09T03:01:56.378Z,0.30
2023-01-09T03:04:41.049Z,0.30
2023-01-09T03:07:26.031Z,0.30
2023-01-09T03:10:00.321Z,0.20
2023-01-09T03:12:31.604Z,0.20
2023-01-09T03:15:01.484Z,0.20
2023-01-09T03:17:39.814Z,0.13
2023-01-09T03:20:10.488Z,0.20
2023-01-09T03:23:00.380Z,0.30
2023-01-09T03:25:29.445Z,0.25
2023-01-09T03:28:04.509Z,0.20
2023-01-09T03:30:33.977Z,0.30
2023-01-09T03:33:00.710Z,0.25
2023-01-09T03:35:28.203Z,0.20
2023-01-09T03:37:54.989Z,0.30
2023-01-09T03:40:21.728Z,0.30
2023-01-09T03:42:49.395Z,0.13
2023-01-09T03:45:16.151Z,0.52
2023-01-09T03:47:42.763Z,0.30
2023-01-09T03:50:10.311Z,0.30
2023-01-09T03:52:36.941Z,0.28
2023-01-09T03:55:04.187Z,0.20
2023-01-09T03:57:30.836Z,0.20
2023-01-09T03:59:57.540Z,0.30
2023-01-09T04:02:24.154Z,0.20
2023-01-09T04:04:50.828Z,0.32
2023-01-09T04:07:17.509Z,0.20
2023-01-09T04:09:44.255Z,0.20
2023-01-09T04:12:10.925Z,0.22
2023-01-09T04:14:37.521Z,0.30
2023-01-09T04:17:04.116Z,0.30
2023-01-09T04:19:30.696Z,0.35
2023-01-09T04:21:57.298Z,0.30
2023-01-09T04:24:23.881Z,0.20
2023-01-09T04:26:50.471Z,0.38
2023-01-09T04:29:17.067Z,0.30
2023-01-09T04:31:43.740Z,0.30
2023-01-09T04:34:10.364Z,0.20
2023-01-09T04:36:37.004Z,1.38
2023-01-09T04:39:03.819Z,0.20
2023-01-09T04:41:48.756Z,0.25
2023-01-09T04:44:21.211Z,0.30
2023-01-09T04:46:48.231Z,0.30
2023-01-09T04:49:15.463Z,0.40
2023-01-09T04:51:42.095Z,0.30
2023-01-09T04:54:08.901Z,0.30
2023-01-09T04:56:36.698Z,0.30
2023-01-09T04:59:05.515Z,0.70
2023-01-09T05:01:32.916Z,0.30
2023-01-09T05:03:59.865Z,0.30
2023-01-09T05:06:26.559Z,0.20
2023-01-09T05:08:53.291Z,0.30
2023-01-09T05:11:19.913Z,0.30
2023-01-09T05:13:46.552Z,0.20
2023-01-09T05:16:13.547Z,0.22
2023-01-09T05:18:40.195Z,0.30
2023-01-09T05:21:06.827Z,0.30
2023-01-09T05:23:34.060Z,0.30
2023-01-09T05:26:01.550Z,0.30
2023-01-09T05:28:28.182Z,0.28
2023-01-09T05:30:55.158Z,0.20
2023-01-09T05:33:21.900Z,0.30
2023-01-09T05:35:48.740Z,0.50
2023-01-09T05:38:15.491Z,0.38
2023-01-09T05:40:42.177Z,0.40
2023-01-09T05:43:08.794Z,0.30
2023-01-09T05:45:35.699Z,0.40
2023-01-09T05:48:02.339Z,0.38
2023-01-09T05:50:29.158Z,0.40
2023-01-09T05:52:55.801Z,0.40
2023-01-09T05:55:28.444Z,0.30
2023-01-09T05:57:55.080Z,0.40
2023-01-09T06:00:22.174Z,0.40
2023-01-09T06:02:48.835Z,0.47
2023-01-09T06:05:15.630Z,0.40
2023-01-09T06:07:42.392Z,0.50
2023-01-09T06:10:13.156Z,0.50
2023-01-09T06:12:40.017Z,0.45
2023-01-09T06:15:09.079Z,0.52
2023-01-09T06:17:35.943Z,0.63
2023-01-09T06:20:03.696Z,0.57
2023-01-09T06:22:30.301Z,0.47
2023-01-09T06:24:56.909Z,0.60
2023-01-09T06:27:23.656Z,0.30
2023-01-09T06:29:50.235Z,0.32
2023-01-09T06:32:23.974Z,0.40
2023-01-09T06:34:53.461Z,0.40
2023-01-09T06:37:20.141Z,0.55
2023-01-09T06:39:53.987Z,0.32
2023-01-09T06:42:21.940Z,0.77
2023-01-09T06:44:53.951Z,0.50
2023-01-09T06:47:22.870Z,0.47
2023-01-09T06:49:50.673Z,0.60
2023-01-09T06:52:19.424Z,0.68
2023-01-09T06:54:52.312Z,0.45
2023-01-09T06:57:21.408Z,1.20
2023-01-09T06:59:58.049Z,0.80
2023-01-09T07:02:24.921Z,1.00
2023-01-09T07:04:51.625Z,0.95
2023-01-09T07:07:19.645Z,0.82
2023-01-09T07:09:46.332Z,0.82
2023-01-09T07:12:12.976Z,0.90
2023-01-09T07:14:39.586Z,0.75
2023-01-09T07:17:06.335Z,1.20
2023-01-09T07:19:33.033Z,1.50
2023-01-09T07:21:59.623Z,1.42
2023-01-09T07:24:26.254Z,0.75
2023-01-09T07:26:52.841Z,1.02
2023-01-09T07:29:19.454Z,1.17
2023-01-09T07:31:46.860Z,0.80
2023-01-09T07:34:13.625Z,0.68
2023-01-09T07:36:40.263Z,0.90
2023-01-09T07:39:06.834Z,3.80
2023-01-09T07:41:33.422Z,1.63
2023-01-09T07:44:00.314Z,0.60
2023-01-09T07:46:28.738Z,0.70
2023-01-09T07:48:56.297Z,1.30
2023-01-09T07:51:23.009Z,0.80
2023-01-09T07:53:49.650Z,0.85
2023-01-09T07:56:16.298Z,0.70
2023-01-09T07:58:42.860Z,0.63
2023-01-09T08:01:09.514Z,0.80
2023-01-09T08:03:36.593Z,0.70
2023-01-09T08:06:03.231Z,0.75
2023-01-09T08:08:32.359Z,0.60
2023-01-09T08:10:58.992Z,0.60
2023-01-09T08:13:28.076Z,0.98
2023-01-09T08:15:54.729Z,0.52
2023-01-09T08:18:21.371Z,0.90
2023-01-09T08:20:49.654Z,0.80
2023-01-09T08:23:16.319Z,0.80
2023-01-09T08:25:42.973Z,0.60
2023-01-09T08:28:09.716Z,0.60
2023-01-09T08:30:36.941Z,0.70
2023-01-09T08:33:03.687Z,0.70
2023-01-09T08:35:30.447Z,0.65
2023-01-09T08:37:57.065Z,1.00
2023-01-09T08:40:23.660Z,1.20
2023-01-09T08:43:08.838Z,0.88
2023-01-09T08:45:53.987Z,0.73
2023-01-09T08:48:23.476Z,0.50
2023-01-09T08:50:50.156Z,0.60
2023-01-09T08:53:16.767Z,0.55
2023-01-09T08:55:43.768Z,1.50
2023-01-09T08:58:10.587Z,0.80
2023-01-09T09:00:37.607Z,0.68
2023-01-09T09:03:04.607Z,1.30
2023-01-09T09:05:32.919Z,0.63
2023-01-09T09:07:59.916Z,0.70
2023-01-09T09:10:28.883Z,0.80
2023-01-09T09:12:57.919Z,1.00
2023-01-09T09:15:26.727Z,0.82
2023-01-09T09:17:55.733Z,0.85
2023-01-09T09:20:24.704Z,1.00
2023-01-09T09:22:51.582Z,0.63
2023-01-09T09:25:19.081Z,0.90
2023-01-09T09:27:46.656Z,1.45
2023-01-09T09:30:16.279Z,0.93
2023-01-09T09:32:43.645Z,0.57
2023-01-09T09:35:10.850Z,0.90
2023-01-09T09:37:37.962Z,0.70
2023-01-09T09:40:17.894Z,1.05
2023-01-09T09:43:13.072Z,0.77
2023-01-09T09:46:06.196Z,0.70
2023-01-09T09:48:39.081Z,0.50
2023-01-09T09:51:35.664Z,0.60
2023-01-09T09:54:15.657Z,0.60
2023-01-09T09:56:53.302Z,0.70
2023-01-09T09:59:33.391Z,0.77
2023-01-09T10:02:25.173Z,0.40
2023-01-09T10:05:01.806Z,0.60
2023-01-09T10:07:41.613Z,0.80
2023-01-09T10:10:28.345Z,0.73
2023-01-09T10:12:59.113Z,0.82
2023-01-09T10:15:45.897Z,0.63
2023-01-09T10:19:12.731Z,0.50
2023-01-09T10:21:59.178Z,0.50
2023-01-09T10:24:57.537Z,0.60
2023-01-09T10:27:47.319Z,0.90
2023-01-09T10:31:04.366Z,0.80
2023-01-09T10:33:36.968Z,0.65
2023-01-09T10:36:31.591Z,0.40
2023-01-09T10:39:04.306Z,0.50
2023-01-09T10:41:35.045Z,0.47
2023-01-09T10:44:39.890Z,0.60
2023-01-09T10:47:17.598Z,0.60
2023-01-09T10:49:47.718Z,0.68
2023-01-09T10:52:20.428Z,0.60
2023-01-09T10:55:03.064Z,0.57
2023-01-09T10:57:42.504Z,0.70
2023-01-09T11:00:18.219Z,0.40
2023-01-09T11:02:45.774Z,0.30
2023-01-09T11:05:25.457Z,0.50
2023-01-09T11:08:31.613Z,0.50
2023-01-09T11:11:01.881Z,0.40
2023-01-09T11:13:34.612Z,0.40
2023-01-09T11:16:20.943Z,0.50
2023-01-09T11:18:59.108Z,0.60
2023-01-09T11:21:40.454Z,0.60
2023-01-09T11:24:19.335Z,0.40
2023-01-09T11:26:48.843Z,0.60
2023-01-09T11:29:24.349Z,0.43
2023-01-09T11:31:58.142Z,0.40
2023-01-09T11:34:31.952Z,0.40
2023-01-09T11:37:08.265Z,0.60
2023-01-09T11:39:41.083Z,0.30
2023-01-09T11:42:40.416Z,0.32
2023-01-09T11:45:26.207Z,0.40
2023-01-09T11:47:56.649Z,0.50
2023-01-09T11:50:27.029Z,0.45
2023-01-09T11:53:19.718Z,0.30
2023-01-09T11:55:55.510Z,0.40
2023-01-09T11:58:22.279Z,0.40
2023-01-09T12:01:18.128Z,0.30
2023-01-09T12:04:24.797Z,0.50
2023-01-09T12:07:15.935Z,0.43
2023-01-09T12:10:04.071Z,0.50
2023-01-09T12:12:49.152Z,0.50
2023-01-09T12:15:33.536Z,0.47
2023-01-09T12:18:23.625Z,0.40
2023-01-09T12:21:28.025Z,0.60
2023-01-09T12:24:25.063Z,0.70
2023-01-09T12:27:37.773Z,0.47
2023-01-09T12:30:36.392Z,0.40
2023-01-09T12:33:30.140Z,0.50
2023-01-09T12:36:28.612Z,0.50
2023-01-09T12:39:12.158Z,0.50
2023-01-09T12:42:14.081Z,0.57
2023-01-09T12:45:16.250Z,0.50
2023-01-09T12:47:48.652Z,0.50
2023-01-09T12:50:53.181Z,0.60
2023-01-09T12:53:27.196Z,0.63
2023-01-09T12:56:04.337Z,0.70
2023-01-09T12:58:36.327Z,0.60
2023-01-09T13:01:07.196Z,0.40
2023-01-09T13:03:51.632Z,0.35
2023-01-09T13:06:21.312Z,0.60
2023-01-09T13:09:10.416Z,0.47
2023-01-09T13:12:02.262Z,0.50
2023-01-09T13:15:02.399Z,0.60
2023-01-09T13:18:04.886Z,0.50
2023-01-09T13:20:51.773Z,0.50
2023-01-09T13:24:01.750Z,0.50
2023-01-09T13:26:42.289Z,0.40
2023-01-09T13:29:28.500Z,0.40
2023-01-09T13:32:37.876Z,0.50
2023-01-09T13:35:05.156Z,0.50
2023-01-09T13:37:36.518Z,0.43
2023-01-09T13:40:20.918Z,0.40
2023-01-09T13:43:01.009Z,0.40
2023-01-09T13:45:31.339Z,0.60
2023-01-09T13:48:17.507Z,0.50
2023-01-09T13:50:46.181Z,0.60
2023-01-09T13:53:27.574Z,0.40
2023-01-09T13:55:57.390Z,0.43
2023-01-09T13:58:28.539Z,0.70
2023-01-09T14:01:00.438Z,0.50
2023-01-09T14:03:38.295Z,0.43
2023-01-09T14:06:12.033Z,0.40
2023-01-09T14:08:41.717Z,0.77
2023-01-09T14:11:09.838Z,0.70
2023-01-09T14:13:43.972Z,0.60
2023-01-09T14:16:23.881Z,0.50
2023-01-09T14:19:22.630Z,0.50
2023-01-09T14:21:56.201Z,0.60
2023-01-09T14:24:26.337Z,0.70
2023-01-09T14:26:59.491Z,0.50
2023-01-09T14:29:29.370Z,0.63
2023-01-09T14:32:26.230Z,0.50
2023-01-09T14:35:17.828Z,0.40
2023-01-09T14:37:55.411Z,0.60
2023-01-09T14:40:23.651Z,0.60
2023-01-09T14:42:55.176Z,0.40
2023-01-09T14:45:25.149Z,0.70
2023-01-09T14:48:04.174Z,0.40
2023-01-09T14:50:50.556Z,0.63
2023-01-09T14:53:24.414Z,0.63
2023-01-09T14:56:06.560Z,0.60
2023-01-09T14:58:37.031Z,0.60
2023-01-09T15:01:14.744Z,0.75
2023-01-09T15:03:51.326Z,0.80
2023-01-09T15:06:20.692Z,0.98
2023-01-09T15:08:56.383Z,0.90
2023-01-09T15:11:23.060Z,0.32
2023-01-09T15:13:53.200Z,0.82
2023-01-09T15:16:25.734Z,0.75
2023-01-09T15:19:00.668Z,0.70
2023-01-09T15:21:32.692Z,0.63
2023-01-09T15:24:27.085Z,0.60
2023-01-09T15:27:11.062Z,0.50
2023-01-09T15:29:37.806Z,0.50
2023-01-09T15:32:24.037Z,0.73
2023-01-09T15:34:51.220Z,0.40
2023-01-09T15:37:38.973Z,0.60
2023-01-09T15:40:08.294Z,1.48
2023-01-09T15:42:58.012Z,1.13
2023-01-09T15:45:29.260Z,0.80
2023-01-09T15:48:32.721Z,0.70
2023-01-09T15:51:10.660Z,0.90
2023-01-09T15:53:42.859Z,0.70
2023-01-09T15:56:12.584Z,0.70
2023-01-09T15:58:47.153Z,1.30
2023-01-09T16:01:38.290Z,0.70
2023-01-09T16:04:16.322Z,0.50
2023-01-09T16:06:50.838Z,0.80
2023-01-09T16:09:28.434Z,2.50
2023-01-09T16:12:03.128Z,1.70
2023-01-09T16:14:38.295Z,2.90
2023-01-09T16:17:11.350Z,1.58
2023-01-09T16:20:15.545Z,0.70
2023-01-09T16:22:55.050Z,1.17
2023-01-09T16:25:34.025Z,0.60
2023-01-09T16:28:28.143Z,1.10
2023-01-09T16:31:08.244Z,0.90
2023-01-09T16:33:35.359Z,0.60
2023-01-09T16:36:04.833Z,0.80
2023-01-09T16:38:31.532Z,0.60
2023-01-09T16:41:20.990Z,0.43
2023-01-09T16:43:47.682Z,0.50
2023-01-09T16:46:17.025Z,0.60
2023-01-09T16:48:43.931Z,0.50
2023-01-09T16:51:29.402Z,0.40
2023-01-09T16:53:56.258Z,0.45
2023-01-09T16:56:29.664Z,0.80
2023-01-09T16:58:56.727Z,0.75
2023-01-09T17:01:23.521Z,0.80
2023-01-09T17:03:52.332Z,0.90
2023-01-09T17:06:27.398Z,1.08
2023-01-09T17:08:54.038Z,1.50
2023-01-09T17:11:28.116Z,1.45
2023-01-09T17:13:54.723Z,1.38
2023-01-09T17:16:21.508Z,1.48
2023-01-09T17:18:48.169Z,0.90
2023-01-09T17:21:28.792Z,0.95
2023-01-09T17:24:15.231Z,1.17
2023-01-09T17:27:04.370Z,1.10
2023-01-09T17:29:31.453Z,0.95
2023-01-09T17:31:58.464Z,1.20
2023-01-09T17:34:25.231Z,0.80
2023-01-09T17:36:52.687Z,0.80
2023-01-09T17:39:19.347Z,1.70
2023-01-09T17:41:45.975Z,1.70
2023-01-09T17:44:13.070Z,1.00
2023-01-09T17:46:43.394Z,0.80
2023-01-09T17:49:21.288Z,1.20
2023-01-09T17:51:48.558Z,1.30
2023-01-09T17:54:15.652Z,1.00
2023-01-09T17:56:46.381Z,1.90
2023-01-09T17:59:15.157Z,0.80
2023-01-09T18:01:44.170Z,0.73
2023-01-09T18:04:11.246Z,1.27
2023-01-09T18:06:37.959Z,1.50
2023-01-09T18:09:06.431Z,1.00
2023-01-09T18:11:34.285Z,0.95
2023-01-09T18:14:02.298Z,0.93
2023-01-09T18:16:29.235Z,1.20
2023-01-09T18:18:58.009Z,1.60
2023-01-09T18:21:27.516Z,1.10
2023-01-09T18:23:55.037Z,0.80
2023-01-09T18:26:22.411Z,0.80
2023-01-09T18:28:52.437Z,1.20
2023-01-09T18:31:22.643Z,0.80
2023-01-09T18:33:52.080Z,0.80
2023-01-09T18:36:21.961Z,0.93
2023-01-09T18:38:53.320Z,1.00
2023-01-09T18:41:21.291Z,2.45
2023-01-09T18:43:53.242Z,2.15
2023-01-09T18:46:23.955Z,1.27
2023-01-09T18:48:56.060Z,1.30
2023-01-09T18:51:25.885Z,1.42
2023-01-09T18:53:53.887Z,1.17
2023-01-09T18:56:21.578Z,1.00
2023-01-09T18:58:48.644Z,0.88
2023-01-09T19:01:16.066Z,1.63
2023-01-09T19:03:42.827Z,1.30
2023-01-09T19:06:10.110Z,0.77
2023-01-09T19:08:36.962Z,0.55
2023-01-09T19:11:04.448Z,0.70
2023-01-09T19:13:34.648Z,0.75
2023-01-09T19:16:03.154Z,0.80
2023-01-09T19:18:37.944Z,0.73
2023-01-09T19:21:13.684Z,0.80
2023-01-09T19:23:42.379Z,1.23
2023-01-09T19:26:17.044Z,1.70
2023-01-09T19:28:46.388Z,0.93
2023-01-09T19:31:15.260Z,0.85
2023-01-09T19:33:42.545Z,0.60
2023-01-09T19:36:09.726Z,1.10
2023-01-09T19:38:36.686Z,0.70
2023-01-09T19:41:09.030Z,1.10
2023-01-09T19:43:36.464Z,0.82
2023-01-09T19:46:09.115Z,0.73
2023-01-09T19:48:35.854Z,1.27
2023-01-09T19:51:04.646Z,1.20
2023-01-09T19:53:32.747Z,1.33
2023-01-09T19:56:08.317Z,0.98
2023-01-09T19:58:35.414Z,0.75
2023-01-09T20:01:14.889Z,0.80
2023-01-09T20:03:43.782Z,0.70
2023-01-09T20:06:14.242Z,0.60
2023-01-09T20:08:42.419Z,0.70
2023-01-09T20:11:09.188Z,1.05
2023-01-09T20:13:36.364Z,0.90
2023-01-09T20:16:04.218Z,1.02
2023-01-09T20:18:32.988Z,1.00
2023-01-09T20:20:59.923Z,1.50
2023-01-09T20:23:27.832Z,1.23
2023-01-09T20:25:55.725Z,1.20
2023-01-09T20:28:22.976Z,1.02
2023-01-09T20:30:53.104Z,1.17
2023-01-09T20:33:21.559Z,1.25
2023-01-09T20:35:48.478Z,1.05
2023-01-09T20:38:15.492Z,1.05
2023-01-09T20:40:44.752Z,1.08
2023-01-09T20:43:12.727Z,0.88
2023-01-09T20:45:40.459Z,1.00
2023-01-09T20:48:08.126Z,1.23
2023-01-09T20:50:35.015Z,1.02
2023-01-09T20:53:02.724Z,1.08
2023-01-09T20:55:29.486Z,0.98
2023-01-09T20:57:56.084Z,0.80
2023-01-09T21:00:27.156Z,0.95
2023-01-09T21:02:54.287Z,1.00
2023-01-09T21:05:20.899Z,0.90
2023-01-09T21:07:47.998Z,1.00
2023-01-09T21:10:14.789Z,1.08
2023-01-09T21:12:41.771Z,1.10
2023-01-09T21:15:11.408Z,1.10
2023-01-09T21:17:40.496Z,1.10
2023-01-09T21:20:12.516Z,0.82
2023-01-09T21:22:39.465Z,1.10
2023-01-09T21:25:07.380Z,0.98
2023-01-09T21:27:43.504Z,1.00
2023-01-09T21:30:11.067Z,0.95
2023-01-09T21:32:37.957Z,1.15
2023-01-09T21:35:06.635Z,1.15
2023-01-09T21:37:36.287Z,1.05
2023-01-09T21:40:06.168Z,1.05
2023-01-09T21:42:51.772Z,0.73
2023-01-09T21:45:37.078Z,0.95
2023-01-09T21:48:07.720Z,0.85
2023-01-09T21:50:36.213Z,1.27
2023-01-09T21:53:05.133Z,0.85
2023-01-09T21:55:32.039Z,0.85
2023-01-09T21:58:00.992Z,1.35
2023-01-09T22:00:28.400Z,0.73
2023-01-09T22:02:55.523Z,0.77
2023-01-09T22:05:24.406Z,0.80
2023-01-09T22:07:51.520Z,0.88
2023-01-09T22:10:18.454Z,0.70
2023-01-09T22:13:05.013Z,0.80
2023-01-09T22:15:32.424Z,1.13
2023-01-09T22:17:59.021Z,1.25
2023-01-09T22:20:25.676Z,0.75
2023-01-09T22:22:52.288Z,0.90
2023-01-09T22:25:19.827Z,1.48
2023-01-09T22:27:47.863Z,1.17
2023-01-09T22:30:14.923Z,1.10
2023-01-09T22:32:41.597Z,1.00
2023-01-09T22:35:09.170Z,1.15
2023-01-09T22:37:35.789Z,0.70
2023-01-09T22:40:02.505Z,0.90
2023-01-09T22:42:30.411Z,0.80
2023-01-09T22:44:56.986Z,1.48
2023-01-09T22:47:23.565Z,1.30
2023-01-09T22:49:53.324Z,0.82
2023-01-09T22:52:21.236Z,1.10
2023-01-09T22:54:48.205Z,1.00
2023-01-09T22:57:14.802Z,1.00
2023-01-09T22:59:41.431Z,0.90
2023-01-09T23:02:08.130Z,1.00
2023-01-09T23:04:34.831Z,0.82
2023-01-09T23:07:01.504Z,0.90
2023-01-09T23:09:28.217Z,0.80
2023-01-09T23:12:03.781Z,0.88
2023-01-09T23:14:33.802Z,0.70
2023-01-09T23:17:00.542Z,0.80
2023-01-09T23:19:27.517Z,0.68
2023-01-09T23:21:54.154Z,0.90
2023-01-09T23:24:20.912Z,1.00
2023-01-09T23:26:47.902Z,0.90
2023-01-09T23:29:15.068Z,0.82
2023-01-09T23:31:42.051Z,1.20
2023-01-09T23:34:09.277Z,1.13
2023-01-09T23:36:36.341Z,1.10
2023-01-09T23:39:04.076Z,0.80
2023-01-09T23:41:57.039Z,1.20
2023-01-09T23:44:23.682Z,1.20
2023-01-09T23:46:50.672Z,1.10
2023-01-09T23:49:17.577Z,1.20
2023-01-09T23:51:44.822Z,1.02
2023-01-09T23:54:12.149Z,1.08
2023-01-09T23:56:39.265Z,1.10
2023-01-09T23:59:09.375Z,1.42
